sensor_id;sensor_type;location;lat;lon;timestamp;P1;durP1;ratioP1;P2;durP2;ratioP2
28192;SDS011;15473;50.840;3.396;2022-09-29T00:01:49;15.48;;;10.08;;
28192;SDS011;15473;50.840;3.396;2022-09-29T00:04:25;12.90;;;7.75;;
28192;SDS011;15473;50.840;3.396;2022-09-29T00:06:55;12.23;;;6.42;;
28192;SDS011;15473;50.840;3.396;2022-09-29T00:09:25;13.60;;;6.22;;
28192;SDS011;15473;50.840;3.396;2022-09-29T00:11:56;11.10;;;6.47;;
28192;SDS011;15473;50.840;3.396;2022-09-29T00:14:26;7.58;;;5.70;;
28192;SDS011;15473;50.840;3.396;2022-09-29T00:16:56;10.58;;;6.75;;
28192;SDS011;15473;50.840;3.396;2022-09-29T00:19:27;10.88;;;6.40;;
28192;SDS011;15473;50.840;3.396;2022-09-29T00:21:57;13.13;;;6.80;;
28192;SDS011;15473;50.840;3.396;2022-09-29T00:24:27;9.95;;;6.70;;
28192;SDS011;15473;50.840;3.396;2022-09-29T00:26:58;14.45;;;6.00;;
28192;SDS011;15473;50.840;3.396;2022-09-29T00:29:28;9.80;;;5.80;;
28192;SDS011;15473;50.840;3.396;2022-09-29T00:31:59;12.23;;;7.10;;
28192;SDS011;15473;50.840;3.396;2022-09-29T00:34:31;14.10;;;5.25;;
28192;SDS011;15473;50.840;3.396;2022-09-29T00:37:01;6.90;;;5.03;;
28192;SDS011;15473;50.840;3.396;2022-09-29T00:39:38;10.55;;;5.03;;
28192;SDS011;15473;50.840;3.396;2022-09-29T00:42:10;13.10;;;5.85;;
28192;SDS011;15473;50.840;3.396;2022-09-29T00:47:24;13.08;;;7.90;;
28192;SDS011;15473;50.840;3.396;2022-09-29T00:49:57;12.55;;;7.00;;
28192;SDS011;15473;50.840;3.396;2022-09-29T00:52:47;16.82;;;7.87;;
28192;SDS011;15473;50.840;3.396;2022-09-29T00:55:23;8.48;;;5.58;;
28192;SDS011;15473;50.840;3.396;2022-09-29T01:01:06;11.38;;;5.42;;
28192;SDS011;15473;50.840;3.396;2022-09-29T01:03:41;10.78;;;6.12;;
28192;SDS011;15473;50.840;3.396;2022-09-29T01:06:35;9.78;;;5.67;;
28192;SDS011;15473;50.840;3.396;2022-09-29T01:09:17;7.80;;;5.47;;
28192;SDS011;15473;50.840;3.396;2022-09-29T01:11:44;8.78;;;6.03;;
28192;SDS011;15473;50.840;3.396;2022-09-29T01:14:15;9.70;;;5.70;;
28192;SDS011;15473;50.840;3.396;2022-09-29T01:16:45;8.63;;;4.90;;
28192;SDS011;15473;50.840;3.396;2022-09-29T01:19:20;8.88;;;5.12;;
28192;SDS011;15473;50.840;3.396;2022-09-29T01:22:20;12.70;;;5.83;;
28192;SDS011;15473;50.840;3.396;2022-09-29T01:26:02;12.68;;;4.97;;
28192;SDS011;15473;50.840;3.396;2022-09-29T01:30:54;8.18;;;5.55;;
28192;SDS011;15473;50.840;3.396;2022-09-29T01:33:57;11.33;;;4.87;;
28192;SDS011;15473;50.840;3.396;2022-09-29T01:36:46;8.13;;;5.03;;
28192;SDS011;15473;50.840;3.396;2022-09-29T01:39:39;8.63;;;5.20;;
28192;SDS011;15473;50.840;3.396;2022-09-29T01:42:15;10.35;;;6.15;;
28192;SDS011;15473;50.840;3.396;2022-09-29T01:44:49;9.48;;;5.85;;
28192;SDS011;15473;50.840;3.396;2022-09-29T01:47:26;9.10;;;5.33;;
28192;SDS011;15473;50.840;3.396;2022-09-29T01:50:08;11.05;;;5.72;;
28192;SDS011;15473;50.840;3.396;2022-09-29T01:52:39;7.58;;;4.95;;
28192;SDS011;15473;50.840;3.396;2022-09-29T01:55:22;12.23;;;5.73;;
28192;SDS011;15473;50.840;3.396;2022-09-29T01:57:56;9.60;;;5.78;;
28192;SDS011;15473;50.840;3.396;2022-09-29T02:00:29;14.03;;;6.55;;
28192;SDS011;15473;50.840;3.396;2022-09-29T02:05:48;15.67;;;6.67;;
28192;SDS011;15473;50.840;3.396;2022-09-29T02:08:28;19.55;;;8.13;;
28192;SDS011;15473;50.840;3.396;2022-09-29T02:11:21;13.75;;;6.35;;
28192;SDS011;15473;50.840;3.396;2022-09-29T02:14:03;10.98;;;6.60;;
28192;SDS011;15473;50.840;3.396;2022-09-29T02:16:39;11.15;;;5.58;;
28192;SDS011;15473;50.840;3.396;2022-09-29T02:19:15;11.22;;;5.75;;
28192;SDS011;15473;50.840;3.396;2022-09-29T02:21:43;8.58;;;4.90;;
28192;SDS011;15473;50.840;3.396;2022-09-29T02:24:17;9.58;;;5.55;;
28192;SDS011;15473;50.840;3.396;2022-09-29T02:26:47;8.43;;;5.35;;
28192;SDS011;15473;50.840;3.396;2022-09-29T02:29:17;7.12;;;5.47;;
28192;SDS011;15473;50.840;3.396;2022-09-29T02:31:48;10.13;;;5.33;;
28192;SDS011;15473;50.840;3.396;2022-09-29T02:34:18;11.45;;;5.80;;
28192;SDS011;15473;50.840;3.396;2022-09-29T02:36:57;8.10;;;5.55;;
28192;SDS011;15473;50.840;3.396;2022-09-29T02:42:32;7.53;;;5.20;;
28192;SDS011;15473;50.840;3.396;2022-09-29T02:51:34;7.47;;;5.87;;
28192;SDS011;15473;50.840;3.396;2022-09-29T02:57:25;11.08;;;4.87;;
28192;SDS011;15473;50.840;3.396;2022-09-29T03:00:15;10.13;;;5.65;;
28192;SDS011;15473;50.840;3.396;2022-09-29T03:02:53;8.20;;;4.70;;
28192;SDS011;15473;50.840;3.396;2022-09-29T03:05:23;9.35;;;5.33;;
28192;SDS011;15473;50.840;3.396;2022-09-29T03:07:53;8.20;;;5.10;;
28192;SDS011;15473;50.840;3.396;2022-09-29T03:10:23;6.12;;;4.92;;
28192;SDS011;15473;50.840;3.396;2022-09-29T03:12:53;7.72;;;5.85;;
28192;SDS011;15473;50.840;3.396;2022-09-29T03:15:23;9.15;;;5.62;;
28192;SDS011;15473;50.840;3.396;2022-09-29T03:17:56;7.50;;;5.00;;
28192;SDS011;15473;50.840;3.396;2022-09-29T03:20:32;8.83;;;6.03;;
28192;SDS011;15473;50.840;3.396;2022-09-29T03:23:02;13.00;;;5.78;;
28192;SDS011;15473;50.840;3.396;2022-09-29T03:25:39;9.18;;;5.47;;
28192;SDS011;15473;50.840;3.396;2022-09-29T03:28:10;9.05;;;5.33;;
28192;SDS011;15473;50.840;3.396;2022-09-29T03:30:40;10.48;;;5.12;;
28192;SDS011;15473;50.840;3.396;2022-09-29T03:33:13;7.05;;;5.25;;
28192;SDS011;15473;50.840;3.396;2022-09-29T03:35:43;8.93;;;4.83;;
28192;SDS011;15473;50.840;3.396;2022-09-29T03:38:13;8.03;;;4.83;;
28192;SDS011;15473;50.840;3.396;2022-09-29T03:40:43;6.33;;;4.80;;
28192;SDS011;15473;50.840;3.396;2022-09-29T03:43:13;8.40;;;5.17;;
28192;SDS011;15473;50.840;3.396;2022-09-29T03:45:52;6.42;;;4.75;;
28192;SDS011;15473;50.840;3.396;2022-09-29T03:48:18;7.87;;;5.20;;
28192;SDS011;15473;50.840;3.396;2022-09-29T03:50:55;6.42;;;4.75;;
28192;SDS011;15473;50.840;3.396;2022-09-29T03:53:26;8.53;;;5.00;;
28192;SDS011;15473;50.840;3.396;2022-09-29T03:55:56;9.05;;;5.10;;
28192;SDS011;15473;50.840;3.396;2022-09-29T03:58:26;7.33;;;4.95;;
28192;SDS011;15473;50.840;3.396;2022-09-29T04:00:56;6.65;;;4.28;;
28192;SDS011;15473;50.840;3.396;2022-09-29T04:03:27;6.62;;;4.65;;
28192;SDS011;15473;50.840;3.396;2022-09-29T04:05:57;8.05;;;4.92;;
28192;SDS011;15473;50.840;3.396;2022-09-29T04:08:27;6.80;;;5.30;;
28192;SDS011;15473;50.840;3.396;2022-09-29T04:10:57;11.10;;;5.25;;
28192;SDS011;15473;50.840;3.396;2022-09-29T04:13:27;10.40;;;4.75;;
28192;SDS011;15473;50.840;3.396;2022-09-29T04:15:58;8.18;;;5.20;;
28192;SDS011;15473;50.840;3.396;2022-09-29T04:18:55;10.40;;;5.05;;
28192;SDS011;15473;50.840;3.396;2022-09-29T04:21:25;14.00;;;8.63;;
28192;SDS011;15473;50.840;3.396;2022-09-29T04:24:01;33.67;;;15.05;;
28192;SDS011;15473;50.840;3.396;2022-09-29T04:26:32;23.77;;;12.80;;
28192;SDS011;15473;50.840;3.396;2022-09-29T04:29:03;11.60;;;7.35;;
28192;SDS011;15473;50.840;3.396;2022-09-29T04:31:39;12.63;;;6.62;;
28192;SDS011;15473;50.840;3.396;2022-09-29T04:34:15;9.55;;;6.60;;
28192;SDS011;15473;50.840;3.396;2022-09-29T04:36:47;8.55;;;6.47;;
28192;SDS011;15473;50.840;3.396;2022-09-29T04:39:17;7.40;;;5.67;;
28192;SDS011;15473;50.840;3.396;2022-09-29T04:41:55;9.23;;;5.92;;
28192;SDS011;15473;50.840;3.396;2022-09-29T04:44:25;7.60;;;5.12;;
28192;SDS011;15473;50.840;3.396;2022-09-29T04:46:55;7.17;;;5.15;;
28192;SDS011;15473;50.840;3.396;2022-09-29T04:49:31;13.30;;;5.92;;
28192;SDS011;15473;50.840;3.396;2022-09-29T04:52:01;8.15;;;5.03;;
28192;SDS011;15473;50.840;3.396;2022-09-29T04:54:38;10.23;;;5.10;;
28192;SDS011;15473;50.840;3.396;2022-09-29T04:57:08;9.25;;;5.72;;
28192;SDS011;15473;50.840;3.396;2022-09-29T04:59:38;9.23;;;5.00;;
28192;SDS011;15473;50.840;3.396;2022-09-29T05:02:08;6.92;;;5.00;;
28192;SDS011;15473;50.840;3.396;2022-09-29T05:04:38;9.40;;;5.47;;
28192;SDS011;15473;50.840;3.396;2022-09-29T05:07:15;11.00;;;5.22;;
28192;SDS011;15473;50.840;3.396;2022-09-29T05:09:51;7.67;;;5.33;;
28192;SDS011;15473;50.840;3.396;2022-09-29T05:12:21;9.23;;;5.25;;
28192;SDS011;15473;50.840;3.396;2022-09-29T05:14:52;7.47;;;5.12;;
28192;SDS011;15473;50.840;3.396;2022-09-29T05:17:22;8.43;;;5.67;;
28192;SDS011;15473;50.840;3.396;2022-09-29T05:19:52;13.85;;;5.08;;
28192;SDS011;15473;50.840;3.396;2022-09-29T05:22:22;9.78;;;5.30;;
28192;SDS011;15473;50.840;3.396;2022-09-29T05:24:53;11.33;;;6.45;;
28192;SDS011;15473;50.840;3.396;2022-09-29T05:27:23;8.85;;;5.67;;
28192;SDS011;15473;50.840;3.396;2022-09-29T05:29:53;7.55;;;5.50;;
28192;SDS011;15473;50.840;3.396;2022-09-29T05:32:23;11.43;;;5.90;;
28192;SDS011;15473;50.840;3.396;2022-09-29T05:34:53;8.63;;;5.35;;
28192;SDS011;15473;50.840;3.396;2022-09-29T05:37:23;8.48;;;5.47;;
28192;SDS011;15473;50.840;3.396;2022-09-29T05:39:53;10.72;;;5.25;;
28192;SDS011;15473;50.840;3.396;2022-09-29T05:42:23;9.73;;;5.62;;
28192;SDS011;15473;50.840;3.396;2022-09-29T05:44:55;10.68;;;5.45;;
28192;SDS011;15473;50.840;3.396;2022-09-29T05:47:25;9.83;;;5.28;;
28192;SDS011;15473;50.840;3.396;2022-09-29T05:49:55;8.28;;;5.25;;
28192;SDS011;15473;50.840;3.396;2022-09-29T05:52:26;12.82;;;5.58;;
28192;SDS011;15473;50.840;3.396;2022-09-29T05:54:57;8.13;;;5.50;;
28192;SDS011;15473;50.840;3.396;2022-09-29T05:57:27;7.28;;;5.70;;
28192;SDS011;15473;50.840;3.396;2022-09-29T06:00:03;12.20;;;5.90;;
28192;SDS011;15473;50.840;3.396;2022-09-29T06:02:34;10.75;;;6.12;;
28192;SDS011;15473;50.840;3.396;2022-09-29T06:05:04;8.88;;;5.35;;
28192;SDS011;15473;50.840;3.396;2022-09-29T06:07:34;10.03;;;5.80;;
28192;SDS011;15473;50.840;3.396;2022-09-29T06:10:08;9.93;;;5.40;;
28192;SDS011;15473;50.840;3.396;2022-09-29T06:12:38;14.07;;;5.58;;
28192;SDS011;15473;50.840;3.396;2022-09-29T06:15:08;11.68;;;5.75;;
28192;SDS011;15473;50.840;3.396;2022-09-29T06:17:39;11.08;;;5.95;;
28192;SDS011;15473;50.840;3.396;2022-09-29T06:20:09;8.83;;;5.45;;
28192;SDS011;15473;50.840;3.396;2022-09-29T06:22:39;11.28;;;6.70;;
28192;SDS011;15473;50.840;3.396;2022-09-29T06:25:09;9.50;;;5.95;;
28192;SDS011;15473;50.840;3.396;2022-09-29T06:27:39;10.68;;;5.72;;
28192;SDS011;15473;50.840;3.396;2022-09-29T06:30:15;7.90;;;5.65;;
28192;SDS011;15473;50.840;3.396;2022-09-29T06:32:45;9.63;;;5.65;;
28192;SDS011;15473;50.840;3.396;2022-09-29T06:35:15;9.28;;;5.33;;
28192;SDS011;15473;50.840;3.396;2022-09-29T06:38:04;9.00;;;5.67;;
28192;SDS011;15473;50.840;3.396;2022-09-29T06:40:35;9.68;;;5.33;;
28192;SDS011;15473;50.840;3.396;2022-09-29T06:43:05;9.78;;;5.53;;
28192;SDS011;15473;50.840;3.396;2022-09-29T06:45:35;9.13;;;5.67;;
28192;SDS011;15473;50.840;3.396;2022-09-29T06:48:06;10.53;;;5.87;;
28192;SDS011;15473;50.840;3.396;2022-09-29T06:50:44;12.70;;;6.22;;
28192;SDS011;15473;50.840;3.396;2022-09-29T06:53:15;9.83;;;5.70;;
28192;SDS011;15473;50.840;3.396;2022-09-29T06:55:52;13.88;;;5.25;;
28192;SDS011;15473;50.840;3.396;2022-09-29T06:58:23;11.20;;;5.67;;
28192;SDS011;15473;50.840;3.396;2022-09-29T07:00:53;15.20;;;6.10;;
28192;SDS011;15473;50.840;3.396;2022-09-29T07:03:24;10.95;;;6.10;;
28192;SDS011;15473;50.840;3.396;2022-09-29T07:05:54;7.87;;;5.75;;
28192;SDS011;15473;50.840;3.396;2022-09-29T07:08:24;8.58;;;5.35;;
28192;SDS011;15473;50.840;3.396;2022-09-29T07:10:54;15.35;;;5.87;;
28192;SDS011;15473;50.840;3.396;2022-09-29T07:16:14;13.72;;;5.97;;
28192;SDS011;15473;50.840;3.396;2022-09-29T07:18:44;9.05;;;5.67;;
28192;SDS011;15473;50.840;3.396;2022-09-29T07:21:14;12.28;;;5.58;;
28192;SDS011;15473;50.840;3.396;2022-09-29T07:23:45;9.50;;;6.20;;
28192;SDS011;15473;50.840;3.396;2022-09-29T07:26:17;12.53;;;5.75;;
28192;SDS011;15473;50.840;3.396;2022-09-29T07:28:47;8.55;;;5.62;;
28192;SDS011;15473;50.840;3.396;2022-09-29T07:31:18;11.65;;;6.08;;
28192;SDS011;15473;50.840;3.396;2022-09-29T07:33:49;11.25;;;5.53;;
28192;SDS011;15473;50.840;3.396;2022-09-29T07:36:20;8.48;;;5.28;;
28192;SDS011;15473;50.840;3.396;2022-09-29T07:38:51;12.20;;;5.75;;
28192;SDS011;15473;50.840;3.396;2022-09-29T07:41:21;9.23;;;4.87;;
28192;SDS011;15473;50.840;3.396;2022-09-29T07:43:51;8.68;;;5.87;;
28192;SDS011;15473;50.840;3.396;2022-09-29T07:46:21;7.20;;;4.95;;
28192;SDS011;15473;50.840;3.396;2022-09-29T07:48:51;12.10;;;6.33;;
28192;SDS011;15473;50.840;3.396;2022-09-29T07:51:21;11.68;;;6.60;;
28192;SDS011;15473;50.840;3.396;2022-09-29T07:53:52;11.65;;;6.20;;
28192;SDS011;15473;50.840;3.396;2022-09-29T07:56:22;13.25;;;7.42;;
28192;SDS011;15473;50.840;3.396;2022-09-29T07:58:52;9.80;;;5.78;;
28192;SDS011;15473;50.840;3.396;2022-09-29T08:01:23;9.28;;;5.22;;
28192;SDS011;15473;50.840;3.396;2022-09-29T08:03:54;7.62;;;4.62;;
28192;SDS011;15473;50.840;3.396;2022-09-29T08:06:24;11.93;;;5.28;;
28192;SDS011;15473;50.840;3.396;2022-09-29T08:08:56;14.58;;;5.65;;
28192;SDS011;15473;50.840;3.396;2022-09-29T08:11:29;14.85;;;6.58;;
28192;SDS011;15473;50.840;3.396;2022-09-29T08:14:00;14.60;;;5.78;;
28192;SDS011;15473;50.840;3.396;2022-09-29T08:16:30;9.03;;;5.03;;
28192;SDS011;15473;50.840;3.396;2022-09-29T08:19:02;9.30;;;5.47;;
28192;SDS011;15473;50.840;3.396;2022-09-29T08:21:54;8.50;;;5.05;;
28192;SDS011;15473;50.840;3.396;2022-09-29T08:24:26;13.98;;;5.00;;
28192;SDS011;15473;50.840;3.396;2022-09-29T08:26:57;7.53;;;4.80;;
28192;SDS011;15473;50.840;3.396;2022-09-29T08:29:27;10.55;;;5.05;;
28192;SDS011;15473;50.840;3.396;2022-09-29T08:31:57;8.10;;;5.40;;
28192;SDS011;15473;50.840;3.396;2022-09-29T08:34:27;13.03;;;5.80;;
28192;SDS011;15473;50.840;3.396;2022-09-29T08:36:57;11.65;;;5.53;;
28192;SDS011;15473;50.840;3.396;2022-09-29T08:39:27;16.65;;;5.60;;
28192;SDS011;15473;50.840;3.396;2022-09-29T08:42:04;7.33;;;4.78;;
28192;SDS011;15473;50.840;3.396;2022-09-29T08:44:47;17.75;;;5.53;;
28192;SDS011;15473;50.840;3.396;2022-09-29T08:47:40;17.10;;;5.83;;
28192;SDS011;15473;50.840;3.396;2022-09-29T08:50:13;9.35;;;5.65;;
28192;SDS011;15473;50.840;3.396;2022-09-29T08:52:52;9.58;;;5.87;;
28192;SDS011;15473;50.840;3.396;2022-09-29T08:55:33;9.35;;;6.12;;
28192;SDS011;15473;50.840;3.396;2022-09-29T08:58:07;11.10;;;5.45;;
28192;SDS011;15473;50.840;3.396;2022-09-29T09:00:43;9.53;;;6.08;;
28192;SDS011;15473;50.840;3.396;2022-09-29T09:11:51;14.87;;;6.65;;
28192;SDS011;15473;50.840;3.396;2022-09-29T09:20:25;16.97;;;6.10;;
28192;SDS011;15473;50.840;3.396;2022-09-29T09:23:18;13.48;;;6.75;;
28192;SDS011;15473;50.840;3.396;2022-09-29T09:25:55;9.73;;;7.10;;
28192;SDS011;15473;50.840;3.396;2022-09-29T09:31:34;8.98;;;6.40;;
28192;SDS011;15473;50.840;3.396;2022-09-29T09:34:29;9.48;;;6.08;;
28192;SDS011;15473;50.840;3.396;2022-09-29T09:37:07;16.90;;;5.47;;
28192;SDS011;15473;50.840;3.396;2022-09-29T09:42:56;15.13;;;6.30;;
28192;SDS011;15473;50.840;3.396;2022-09-29T09:45:44;8.35;;;4.72;;
28192;SDS011;15473;50.840;3.396;2022-09-29T09:48:23;11.45;;;4.87;;
28192;SDS011;15473;50.840;3.396;2022-09-29T09:51:29;10.58;;;4.12;;
28192;SDS011;15473;50.840;3.396;2022-09-29T10:02:46;10.13;;;5.37;;
28192;SDS011;15473;50.840;3.396;2022-09-29T10:05:19;9.45;;;4.62;;
28192;SDS011;15473;50.840;3.396;2022-09-29T10:07:52;7.50;;;4.70;;
28192;SDS011;15473;50.840;3.396;2022-09-29T10:10:24;6.05;;;5.10;;
28192;SDS011;15473;50.840;3.396;2022-09-29T10:13:10;5.85;;;4.75;;
28192;SDS011;15473;50.840;3.396;2022-09-29T10:16:11;6.90;;;4.50;;
28192;SDS011;15473;50.840;3.396;2022-09-29T10:18:43;7.08;;;4.45;;
28192;SDS011;15473;50.840;3.396;2022-09-29T10:23:58;7.20;;;4.50;;
28192;SDS011;15473;50.840;3.396;2022-09-29T10:26:40;6.45;;;4.90;;
28192;SDS011;15473;50.840;3.396;2022-09-29T10:29:22;9.33;;;5.03;;
28192;SDS011;15473;50.840;3.396;2022-09-29T10:32:07;4.67;;;4.20;;
28192;SDS011;15473;50.840;3.396;2022-09-29T10:34:49;5.20;;;4.50;;
28192;SDS011;15473;50.840;3.396;2022-09-29T10:37:37;6.05;;;3.87;;
28192;SDS011;15473;50.840;3.396;2022-09-29T10:42:46;6.83;;;4.00;;
28192;SDS011;15473;50.840;3.396;2022-09-29T10:45:46;6.33;;;4.20;;
28192;SDS011;15473;50.840;3.396;2022-09-29T10:48:12;6.67;;;4.33;;
28192;SDS011;15473;50.840;3.396;2022-09-29T10:51:02;7.62;;;4.28;;
28192;SDS011;15473;50.840;3.396;2022-09-29T10:53:44;6.92;;;4.50;;
28192;SDS011;15473;50.840;3.396;2022-09-29T10:56:15;5.33;;;3.83;;
28192;SDS011;15473;50.840;3.396;2022-09-29T10:58:51;3.58;;;2.98;;
28192;SDS011;15473;50.840;3.396;2022-09-29T11:01:25;4.47;;;3.15;;
28192;SDS011;15473;50.840;3.396;2022-09-29T11:03:59;7.15;;;3.42;;
28192;SDS011;15473;50.840;3.396;2022-09-29T11:06:34;3.30;;;2.80;;
28192;SDS011;15473;50.840;3.396;2022-09-29T11:09:24;5.35;;;3.22;;
28192;SDS011;15473;50.840;3.396;2022-09-29T11:11:57;5.30;;;3.10;;
28192;SDS011;15473;50.840;3.396;2022-09-29T11:14:38;2.95;;;2.75;;
28192;SDS011;15473;50.840;3.396;2022-09-29T11:17:29;3.92;;;3.22;;
28192;SDS011;15473;50.840;3.396;2022-09-29T11:20:19;11.05;;;3.62;;
28192;SDS011;15473;50.840;3.396;2022-09-29T11:29:04;3.90;;;3.25;;
28192;SDS011;15473;50.840;3.396;2022-09-29T11:34:30;4.62;;;3.37;;
28192;SDS011;15473;50.840;3.396;2022-09-29T11:42:39;4.17;;;3.77;;
28192;SDS011;15473;50.840;3.396;2022-09-29T11:45:41;4.45;;;3.30;;
28192;SDS011;15473;50.840;3.396;2022-09-29T12:00:50;3.27;;;2.98;;
28192;SDS011;15473;50.840;3.396;2022-09-29T12:03:39;4.08;;;3.67;;
28192;SDS011;15473;50.840;3.396;2022-09-29T12:06:55;3.33;;;1.62;;
28192;SDS011;15473;50.840;3.396;2022-09-29T12:09:36;1.52;;;1.10;;
28192;SDS011;15473;50.840;3.396;2022-09-29T12:15:17;0.75;;;0.75;;
28192;SDS011;15473;50.840;3.396;2022-09-29T12:18:24;0.80;;;0.80;;
28192;SDS011;15473;50.840;3.396;2022-09-29T12:21:05;2.08;;;1.10;;
28192;SDS011;15473;50.840;3.396;2022-09-29T12:23:38;1.95;;;0.80;;
28192;SDS011;15473;50.840;3.396;2022-09-29T12:26:31;1.37;;;0.90;;
28192;SDS011;15473;50.840;3.396;2022-09-29T12:29:21;1.52;;;0.90;;
28192;SDS011;15473;50.840;3.396;2022-09-29T12:31:47;0.97;;;0.73;;
28192;SDS011;15473;50.840;3.396;2022-09-29T12:34:44;2.17;;;1.10;;
28192;SDS011;15473;50.840;3.396;2022-09-29T12:37:41;0.85;;;0.80;;
28192;SDS011;15473;50.840;3.396;2022-09-29T12:40:38;1.20;;;1.07;;
28192;SDS011;15473;50.840;3.396;2022-09-29T12:43:31;1.20;;;0.85;;
28192;SDS011;15473;50.840;3.396;2022-09-29T12:46:05;0.82;;;0.78;;
28192;SDS011;15473;50.840;3.396;2022-09-29T12:49:03;1.22;;;0.88;;
28192;SDS011;15473;50.840;3.396;2022-09-29T12:51:51;1.17;;;0.80;;
28192;SDS011;15473;50.840;3.396;2022-09-29T12:57:40;5.08;;;1.20;;
28192;SDS011;15473;50.840;3.396;2022-09-29T12:59:57;1.62;;;1.12;;
28192;SDS011;15473;50.840;3.396;2022-09-29T13:03:00;1.10;;;1.05;;
28192;SDS011;15473;50.840;3.396;2022-09-29T13:05:58;0.72;;;0.65;;
28192;SDS011;15473;50.840;3.396;2022-09-29T13:11:32;2.47;;;0.90;;
28192;SDS011;15473;50.840;3.396;2022-09-29T13:17:11;1.15;;;0.80;;
28192;SDS011;15473;50.840;3.396;2022-09-29T13:19:49;5.35;;;1.10;;
28192;SDS011;15473;50.840;3.396;2022-09-29T13:25:30;1.75;;;1.27;;
28192;SDS011;15473;50.840;3.396;2022-09-29T13:28:32;1.40;;;1.30;;
28192;SDS011;15473;50.840;3.396;2022-09-29T13:31:07;1.60;;;1.20;;
28192;SDS011;15473;50.840;3.396;2022-09-29T13:33:53;3.50;;;1.47;;
28192;SDS011;15473;50.840;3.396;2022-09-29T13:36:43;1.42;;;1.27;;
28192;SDS011;15473;50.840;3.396;2022-09-29T13:39:24;3.00;;;1.30;;
28192;SDS011;15473;50.840;3.396;2022-09-29T13:41:56;1.62;;;1.52;;
28192;SDS011;15473;50.840;3.396;2022-09-29T13:45:12;1.98;;;1.40;;
28192;SDS011;15473;50.840;3.396;2022-09-29T13:47:38;4.08;;;1.75;;
28192;SDS011;15473;50.840;3.396;2022-09-29T13:58:59;3.45;;;1.77;;
28192;SDS011;15473;50.840;3.396;2022-09-29T14:01:37;2.90;;;1.80;;
28192;SDS011;15473;50.840;3.396;2022-09-29T14:07:45;1.92;;;1.82;;
28192;SDS011;15473;50.840;3.396;2022-09-29T14:18:55;3.33;;;2.17;;
28192;SDS011;15473;50.840;3.396;2022-09-29T14:21:54;3.77;;;1.90;;
28192;SDS011;15473;50.840;3.396;2022-09-29T14:24:41;2.97;;;2.03;;
28192;SDS011;15473;50.840;3.396;2022-09-29T14:27:16;4.12;;;1.65;;
28192;SDS011;15473;50.840;3.396;2022-09-29T14:38:16;2.02;;;1.85;;
28192;SDS011;15473;50.840;3.396;2022-09-29T14:43:45;2.25;;;1.98;;
28192;SDS011;15473;50.840;3.396;2022-09-29T14:58:41;3.65;;;2.08;;
28192;SDS011;15473;50.840;3.396;2022-09-29T15:01:34;5.20;;;2.30;;
28192;SDS011;15473;50.840;3.396;2022-09-29T15:06:20;3.83;;;2.37;;
28192;SDS011;15473;50.840;3.396;2022-09-29T15:08:55;5.05;;;2.47;;
28192;SDS011;15473;50.840;3.396;2022-09-29T15:11:53;2.77;;;2.40;;
28192;SDS011;15473;50.840;3.396;2022-09-29T15:14:26;5.60;;;2.55;;
28192;SDS011;15473;50.840;3.396;2022-09-29T15:28:48;3.27;;;2.70;;
28192;SDS011;15473;50.840;3.396;2022-09-29T15:31:24;4.37;;;3.08;;
28192;SDS011;15473;50.840;3.396;2022-09-29T15:33:52;2.67;;;2.47;;
28192;SDS011;15473;50.840;3.396;2022-09-29T15:36:23;2.72;;;2.10;;
28192;SDS011;15473;50.840;3.396;2022-09-29T15:39:01;2.50;;;2.30;;
28192;SDS011;15473;50.840;3.396;2022-09-29T15:41:36;1.60;;;1.50;;
28192;SDS011;15473;50.840;3.396;2022-09-29T15:44:11;3.50;;;1.50;;
28192;SDS011;15473;50.840;3.396;2022-09-29T15:46:55;2.05;;;1.40;;
28192;SDS011;15473;50.840;3.396;2022-09-29T15:49:48;1.10;;;0.90;;
28192;SDS011;15473;50.840;3.396;2022-09-29T15:52:19;3.20;;;1.32;;
28192;SDS011;15473;50.840;3.396;2022-09-29T15:54:54;3.47;;;0.95;;
28192;SDS011;15473;50.840;3.396;2022-09-29T15:57:39;1.40;;;1.30;;
28192;SDS011;15473;50.840;3.396;2022-09-29T16:02:59;2.87;;;1.35;;
28192;SDS011;15473;50.840;3.396;2022-09-29T16:05:40;1.35;;;1.12;;
28192;SDS011;15473;50.840;3.396;2022-09-29T16:08:20;2.90;;;1.17;;
28192;SDS011;15473;50.840;3.396;2022-09-29T16:10:54;1.40;;;1.30;;
28192;SDS011;15473;50.840;3.396;2022-09-29T16:13:30;2.00;;;1.00;;
28192;SDS011;15473;50.840;3.396;2022-09-29T16:16:06;1.05;;;1.05;;
28192;SDS011;15473;50.840;3.396;2022-09-29T16:18:42;2.75;;;1.30;;
28192;SDS011;15473;50.840;3.396;2022-09-29T16:21:38;1.20;;;1.10;;
28192;SDS011;15473;50.840;3.396;2022-09-29T16:24:15;1.17;;;1.17;;
28192;SDS011;15473;50.840;3.396;2022-09-29T16:27:35;1.42;;;1.35;;
28192;SDS011;15473;50.840;3.396;2022-09-29T16:29:44;1.57;;;1.30;;
28192;SDS011;15473;50.840;3.396;2022-09-29T16:38:37;1.65;;;1.40;;
28192;SDS011;15473;50.840;3.396;2022-09-29T16:41:33;1.67;;;1.37;;
28192;SDS011;15473;50.840;3.396;2022-09-29T16:43:46;1.62;;;1.47;;
28192;SDS011;15473;50.840;3.396;2022-09-29T16:46:22;2.08;;;1.45;;
28192;SDS011;15473;50.840;3.396;2022-09-29T16:48:54;2.15;;;1.45;;
28192;SDS011;15473;50.840;3.396;2022-09-29T16:51:25;2.92;;;1.20;;
28192;SDS011;15473;50.840;3.396;2022-09-29T16:54:21;3.10;;;1.45;;
28192;SDS011;15473;50.840;3.396;2022-09-29T16:56:50;3.47;;;1.62;;
28192;SDS011;15473;50.840;3.396;2022-09-29T17:02:10;3.05;;;1.70;;
28192;SDS011;15473;50.840;3.396;2022-09-29T17:04:41;2.83;;;1.70;;
28192;SDS011;15473;50.840;3.396;2022-09-29T17:07:14;3.25;;;1.67;;
28192;SDS011;15473;50.840;3.396;2022-09-29T17:09:54;5.17;;;1.80;;
28192;SDS011;15473;50.840;3.396;2022-09-29T17:12:22;1.57;;;1.47;;
28192;SDS011;15473;50.840;3.396;2022-09-29T17:15:00;4.33;;;2.10;;
28192;SDS011;15473;50.840;3.396;2022-09-29T17:17:38;2.58;;;1.98;;
28192;SDS011;15473;50.840;3.396;2022-09-29T17:20:18;3.40;;;1.98;;
28192;SDS011;15473;50.840;3.396;2022-09-29T17:22:58;2.52;;;2.25;;
28192;SDS011;15473;50.840;3.396;2022-09-29T17:25:35;3.10;;;2.37;;
28192;SDS011;15473;50.840;3.396;2022-09-29T17:28:23;3.12;;;2.40;;
28192;SDS011;15473;50.840;3.396;2022-09-29T17:31:08;5.25;;;2.50;;
28192;SDS011;15473;50.840;3.396;2022-09-29T17:33:46;2.70;;;2.42;;
28192;SDS011;15473;50.840;3.396;2022-09-29T17:36:22;4.83;;;2.77;;
28192;SDS011;15473;50.840;3.396;2022-09-29T17:38:59;5.15;;;3.10;;
28192;SDS011;15473;50.840;3.396;2022-09-29T17:41:36;2.95;;;2.52;;
28192;SDS011;15473;50.840;3.396;2022-09-29T17:44:13;3.33;;;2.90;;
28192;SDS011;15473;50.840;3.396;2022-09-29T17:46:51;4.78;;;2.92;;
28192;SDS011;15473;50.840;3.396;2022-09-29T17:49:34;5.92;;;3.85;;
28192;SDS011;15473;50.840;3.396;2022-09-29T17:52:12;7.95;;;3.83;;
28192;SDS011;15473;50.840;3.396;2022-09-29T17:54:49;5.00;;;3.37;;
28192;SDS011;15473;50.840;3.396;2022-09-29T17:57:33;4.67;;;3.52;;
28192;SDS011;15473;50.840;3.396;2022-09-29T18:00:17;6.90;;;4.50;;
28192;SDS011;15473;50.840;3.396;2022-09-29T18:03:12;6.70;;;4.55;;
28192;SDS011;15473;50.840;3.396;2022-09-29T18:05:56;5.72;;;5.03;;
28192;SDS011;15473;50.840;3.396;2022-09-29T18:08:33;8.03;;;4.80;;
28192;SDS011;15473;50.840;3.396;2022-09-29T18:11:10;7.90;;;5.15;;
28192;SDS011;15473;50.840;3.396;2022-09-29T18:13:46;8.83;;;6.35;;
28192;SDS011;15473;50.840;3.396;2022-09-29T18:16:23;8.25;;;5.65;;
28192;SDS011;15473;50.840;3.396;2022-09-29T18:19:00;8.88;;;6.42;;
28192;SDS011;15473;50.840;3.396;2022-09-29T18:21:36;8.18;;;5.72;;
28192;SDS011;15473;50.840;3.396;2022-09-29T18:24:13;11.60;;;6.70;;
28192;SDS011;15473;50.840;3.396;2022-09-29T18:26:49;8.48;;;6.45;;
28192;SDS011;15473;50.840;3.396;2022-09-29T18:29:32;10.10;;;6.10;;
28192;SDS011;15473;50.840;3.396;2022-09-29T18:32:18;9.83;;;7.12;;
28192;SDS011;15473;50.840;3.396;2022-09-29T18:34:55;12.00;;;7.15;;